createdAt,value
2019-05-20T05:31:10.409Z,100265.06
2019-05-20T05:33:41.994Z,100273.61
2019-05-20T05:36:13.672Z,100277.02
2019-05-20T05:38:45.148Z,100281.47
2019-05-20T05:41:16.681Z,100282.29
2019-05-20T05:43:48.362Z,100285.42
2019-05-20T05:46:19.888Z,100279.97
2019-05-20T05:48:51.207Z,100274.94
2019-05-20T05:51:23.145Z,100281.18
2019-05-20T05:53:54.637Z,100277.61
2019-05-20T05:56:26.938Z,100289.06
2019-05-20T05:58:58.460Z,100287.97
2019-05-20T06:01:29.920Z,100298.11
2019-05-20T06:04:01.254Z,100292.16
2019-05-20T06:06:32.602Z,100298.90
2019-05-20T06:09:05.455Z,100309.68
2019-05-20T06:11:37.037Z,100303.20
2019-05-20T06:14:08.491Z,100303.94
2019-05-20T06:16:39.979Z,100306.02
2019-05-20T06:19:11.427Z,100307.48
2019-05-20T06:21:43.028Z,100309.30
2019-05-20T06:24:14.383Z,100314.84
2019-05-20T06:26:45.826Z,100316.55
2019-05-20T06:29:17.686Z,100316.80
2019-05-20T06:31:49.358Z,100321.48
2019-05-20T06:34:20.900Z,100305.47
2019-05-20T06:37:00.539Z,100316.14
2019-05-20T06:39:32.017Z,100307.45
2019-05-20T06:42:03.296Z,100311.98
2019-05-20T06:44:50.244Z,100313.27
2019-05-20T06:47:08.286Z,100315.13
2019-05-20T06:49:39.625Z,100318.00
2019-05-20T06:52:11.123Z,100321.95
2019-05-20T06:54:43.047Z,100323.77
2019-05-20T06:57:15.097Z,100321.52
2019-05-20T06:59:46.856Z,100318.78
2019-05-20T07:02:18.358Z,100318.78
2019-05-20T07:04:49.895Z,100320.10
2019-05-20T07:07:21.613Z,100327.08
2019-05-20T07:09:53.180Z,100334.95
2019-05-20T07:12:40.200Z,100335.10
2019-05-20T07:14:57.745Z,100330.66
2019-05-20T07:17:29.242Z,100339.69
2019-05-20T07:20:00.792Z,100333.02
2019-05-20T07:22:32.297Z,100343.20
2019-05-20T07:25:04.381Z,100345.34
2019-05-20T07:27:35.833Z,100346.39
2019-05-20T07:30:07.620Z,100347.33
2019-05-20T07:32:39.109Z,100345.40
2019-05-20T07:35:28.054Z,100349.20
2019-05-20T07:37:44.687Z,100335.13
2019-05-20T07:40:19.416Z,100339.95
2019-05-20T07:42:51.180Z,100350.52
2019-05-20T07:45:22.748Z,100348.08
2019-05-20T07:47:54.697Z,100336.25
2019-05-20T07:50:27.259Z,100338.64
2019-05-20T07:53:00.555Z,100333.95
2019-05-20T07:55:36.111Z,100336.20
2019-05-20T07:58:09.183Z,100334.00
2019-05-20T08:00:41.091Z,100332.09
2019-05-20T08:03:12.726Z,100329.13
2019-05-20T08:05:44.261Z,100326.30
2019-05-20T08:08:15.997Z,100336.88
2019-05-20T08:10:47.793Z,100332.76
2019-05-20T08:13:19.193Z,100334.38
2019-05-20T08:15:50.554Z,100326.77
2019-05-20T08:18:21.988Z,100326.88
2019-05-20T08:20:53.502Z,100328.48
2019-05-20T08:23:24.888Z,100333.35
2019-05-20T08:25:56.235Z,100316.99
2019-05-20T08:28:27.600Z,100330.53
2019-05-20T08:30:59.030Z,100320.89
2019-05-20T08:33:30.485Z,100307.50
2019-05-20T08:36:01.928Z,100314.11
2019-05-20T08:38:33.481Z,100304.83
2019-05-20T08:41:05.102Z,100314.58
2019-05-20T08:43:36.670Z,100313.42
2019-05-20T08:46:08.123Z,100307.63
2019-05-20T08:48:39.475Z,100314.05
2019-05-20T08:51:10.945Z,100310.93
2019-05-20T08:53:42.398Z,100303.65
2019-05-20T08:56:13.816Z,100292.83
2019-05-20T08:58:45.292Z,100292.77
2019-05-20T09:01:16.927Z,100290.44
